createdAt,value
2023-01-18T00:00:22.123Z,4.57
2023-01-18T00:03:24.721Z,4.68
2023-01-18T00:06:30.034Z,4.88
2023-01-18T00:09:32.599Z,5.05
2023-01-18T00:12:35.327Z,5.02
2023-01-18T00:15:39.330Z,5.08
2023-01-18T00:18:42.514Z,5.12
2023-01-18T00:21:45.100Z,4.86
2023-01-18T00:24:47.307Z,5.12
2023-01-18T00:27:52.296Z,4.91
2023-01-18T00:30:54.874Z,5.09
2023-01-18T00:33:58.674Z,4.91
2023-01-18T00:37:00.841Z,5.12
2023-01-18T00:40:05.317Z,4.94
2023-01-18T00:43:27.623Z,4.69
2023-01-18T00:46:30.501Z,4.64
2023-01-18T00:49:33.323Z,4.68
2023-01-18T00:52:36.060Z,4.63
2023-01-18T00:55:38.721Z,4.90
2023-01-18T00:58:41.917Z,4.72
2023-01-18T01:01:45.461Z,5.05
2023-01-18T01:05:06.974Z,4.96
2023-01-18T01:08:17.273Z,4.92
2023-01-18T01:11:20.177Z,4.83
2023-01-18T01:14:41.458Z,4.78
2023-01-18T01:18:02.971Z,4.93
2023-01-18T01:21:23.710Z,5.05
2023-01-18T01:24:45.392Z,4.91
2023-01-18T01:27:47.571Z,4.88
2023-01-18T01:30:50.957Z,5.14
2023-01-18T01:33:53.675Z,5.19
2023-01-18T01:36:56.828Z,5.03
2023-01-18T01:39:59.100Z,4.88
2023-01-18T01:43:01.713Z,4.97
2023-01-18T01:46:10.576Z,4.99
2023-01-18T01:49:28.433Z,5.09
2023-01-18T01:52:37.203Z,5.17
2023-01-18T01:55:40.626Z,5.02
2023-01-18T01:58:43.670Z,4.88
2023-01-18T02:01:46.770Z,4.84
2023-01-18T02:04:53.717Z,4.98
2023-01-18T02:07:59.601Z,5.05
2023-01-18T02:11:02.121Z,5.24
2023-01-18T02:14:10.595Z,5.20
2023-01-18T02:17:38.724Z,5.40
2023-01-18T02:21:11.833Z,5.34
2023-01-18T02:24:40.137Z,5.42
2023-01-18T02:28:02.818Z,5.42
2023-01-18T02:31:20.075Z,5.38
2023-01-18T02:34:36.157Z,5.58
2023-01-18T02:38:19.140Z,5.47
2023-01-18T02:42:00.517Z,5.41
2023-01-18T02:45:42.157Z,5.38
2023-01-18T02:48:46.495Z,5.47
2023-01-18T02:51:49.043Z,5.52
2023-01-18T02:54:51.669Z,5.72
2023-01-18T02:58:04.508Z,5.70
2023-01-18T03:01:31.869Z,5.72
2023-01-18T03:04:41.905Z,5.57
2023-01-18T03:08:09.570Z,5.50
2023-01-18T03:11:20.804Z,5.54
2023-01-18T03:14:32.646Z,5.66
2023-01-18T03:17:38.033Z,5.58
2023-01-18T03:20:46.676Z,5.66
2023-01-18T03:23:49.943Z,5.59
2023-01-18T03:26:55.233Z,5.61
2023-01-18T03:30:16.280Z,5.64
2023-01-18T03:33:40.325Z,5.74
2023-01-18T03:36:48.899Z,5.77
2023-01-18T03:39:56.727Z,5.75
2023-01-18T03:43:07.653Z,5.76
2023-01-18T03:46:10.156Z,5.45
2023-01-18T03:49:13.202Z,5.32
2023-01-18T03:52:31.777Z,5.55
2023-01-18T03:55:46.918Z,5.57
2023-01-18T03:58:52.612Z,5.59
2023-01-18T04:01:56.471Z,5.60
2023-01-18T04:05:03.500Z,5.55
2023-01-18T04:08:06.564Z,5.66
2023-01-18T04:11:09.391Z,5.70
2023-01-18T04:14:11.669Z,5.68
2023-01-18T04:17:14.983Z,5.78
2023-01-18T04:20:17.597Z,5.57
2023-01-18T04:23:20.126Z,5.42
2023-01-18T04:26:22.306Z,5.48
2023-01-18T04:29:24.999Z,5.29
2023-01-18T04:32:28.893Z,5.36
2023-01-18T04:35:31.949Z,5.38
2023-01-18T04:38:34.975Z,5.28
2023-01-18T04:41:37.612Z,5.34
2023-01-18T04:44:40.186Z,5.52
2023-01-18T04:47:43.439Z,5.35
2023-01-18T04:50:46.592Z,5.26
2023-01-18T04:53:49.957Z,5.34
2023-01-18T04:56:52.409Z,5.15
2023-01-18T04:59:55.380Z,5.34
2023-01-18T05:02:58.460Z,5.37
2023-01-18T05:06:01.810Z,5.22
2023-01-18T05:09:04.566Z,5.18
2023-01-18T05:12:08.495Z,5.23
2023-01-18T05:15:10.976Z,5.16
2023-01-18T05:18:14.249Z,5.10
2023-01-18T05:21:16.783Z,5.17
2023-01-18T05:24:19.839Z,5.33
2023-01-18T05:27:22.256Z,5.33
2023-01-18T05:30:24.943Z,5.29
2023-01-18T05:33:27.344Z,5.05
2023-01-18T05:36:30.312Z,5.25
2023-01-18T05:39:32.864Z,5.27
2023-01-18T05:42:35.780Z,5.27
2023-01-18T05:45:38.130Z,5.26
2023-01-18T05:48:40.831Z,5.21
2023-01-18T05:51:43.448Z,5.18
2023-01-18T05:54:46.149Z,5.14
2023-01-18T05:57:48.746Z,5.04
2023-01-18T06:00:51.986Z,4.96
2023-01-18T06:03:54.800Z,4.91
2023-01-18T06:06:57.407Z,4.87
2023-01-18T06:10:00.001Z,5.06
2023-01-18T06:13:02.384Z,4.71
2023-01-18T06:16:05.500Z,4.72
2023-01-18T06:19:08.059Z,4.72
2023-01-18T06:22:10.779Z,4.56
2023-01-18T06:25:13.024Z,4.70
2023-01-18T06:28:16.298Z,4.88
2023-01-18T06:31:19.040Z,4.48
2023-01-18T06:34:21.691Z,4.49
2023-01-18T06:37:25.668Z,4.56
2023-01-18T06:40:28.539Z,4.78
2023-01-18T06:43:30.950Z,4.93
2023-01-18T06:46:33.718Z,4.57
2023-01-18T06:49:36.251Z,4.50
2023-01-18T06:52:38.799Z,4.56
2023-01-18T06:55:41.246Z,4.17
2023-01-18T06:58:45.023Z,4.28
2023-01-18T07:01:49.536Z,4.46
2023-01-18T07:04:52.669Z,4.42
2023-01-18T07:07:55.532Z,4.44
2023-01-18T07:10:59.539Z,4.50
2023-01-18T07:14:04.459Z,4.73
2023-01-18T07:17:08.839Z,4.70
2023-01-18T07:20:14.881Z,4.57
2023-01-18T07:23:18.071Z,4.42
2023-01-18T07:26:21.968Z,4.57
2023-01-18T07:29:27.824Z,4.50
2023-01-18T07:32:31.736Z,4.64
2023-01-18T07:35:34.389Z,4.56
2023-01-18T07:38:38.972Z,4.38
2023-01-18T07:41:42.667Z,4.25
2023-01-18T07:44:45.180Z,4.29
2023-01-18T07:47:47.855Z,4.19
2023-01-18T07:50:58.694Z,4.17
2023-01-18T07:54:01.385Z,4.23
2023-01-18T07:57:03.841Z,4.40
2023-01-18T08:00:07.566Z,4.22
2023-01-18T08:03:16.936Z,4.28
2023-01-18T08:06:26.460Z,4.32
2023-01-18T08:09:29.099Z,4.25
2023-01-18T08:12:31.955Z,4.60
2023-01-18T08:15:34.763Z,4.45
2023-01-18T08:18:38.992Z,4.79
2023-01-18T08:21:41.618Z,5.16
2023-01-18T08:24:44.757Z,5.33
2023-01-18T08:27:47.046Z,5.38
2023-01-18T08:30:50.038Z,5.39
2023-01-18T08:33:53.004Z,5.52
2023-01-18T08:36:56.733Z,5.92
2023-01-18T08:39:59.367Z,5.92
2023-01-18T08:43:04.430Z,5.75
2023-01-18T08:46:07.247Z,5.83
2023-01-18T08:49:10.767Z,6.05
2023-01-18T08:52:15.229Z,6.03
2023-01-18T08:55:19.596Z,6.19
2023-01-18T08:58:22.837Z,6.35
2023-01-18T09:01:25.867Z,6.29
2023-01-18T09:04:41.067Z,6.31
2023-01-18T09:08:03.440Z,6.18
2023-01-18T09:11:09.919Z,6.21
2023-01-18T09:14:12.603Z,6.26
2023-01-18T09:17:19.397Z,6.40
2023-01-18T09:20:26.465Z,6.57
2023-01-18T09:23:38.341Z,6.63
2023-01-18T09:26:45.207Z,6.38
2023-01-18T09:29:58.738Z,6.49
2023-01-18T09:36:37.560Z,6.22
2023-01-18T09:43:16.963Z,6.30
2023-01-18T09:46:22.161Z,6.08
2023-01-18T09:49:36.657Z,6.16
2023-01-18T09:53:06.296Z,6.12
2023-01-18T09:56:16.965Z,6.10
2023-01-18T09:59:27.555Z,6.36
2023-01-18T10:02:39.492Z,6.42
2023-01-18T10:06:08.615Z,6.72
2023-01-18T10:09:19.298Z,7.04
2023-01-18T10:12:47.387Z,7.05
2023-01-18T10:15:51.461Z,7.59
2023-01-18T10:19:05.342Z,7.59
2023-01-18T10:22:41.721Z,7.44
2023-01-18T10:34:50.119Z,7.36
2023-01-18T10:38:08.897Z,7.31
2023-01-18T10:41:22.332Z,7.56
2023-01-18T10:44:29.422Z,7.66
2023-01-18T10:47:34.009Z,7.69
2023-01-18T10:50:42.281Z,7.86
2023-01-18T10:53:45.355Z,7.92
2023-01-18T10:56:48.993Z,8.13
2023-01-18T10:59:53.830Z,8.05
2023-01-18T11:02:58.653Z,7.82
2023-01-18T11:06:05.390Z,7.78
2023-01-18T11:09:34.443Z,7.55
2023-01-18T11:12:47.855Z,7.76
2023-01-18T11:16:04.254Z,7.80
2023-01-18T11:19:17.807Z,7.83
2023-01-18T11:22:21.916Z,8.07
2023-01-18T11:25:27.457Z,8.05
2023-01-18T11:28:58.197Z,8.00
2023-01-18T11:32:06.664Z,8.22
2023-01-18T11:35:10.193Z,8.14
2023-01-18T11:38:18.776Z,8.21
2023-01-18T11:41:23.467Z,7.85
2023-01-18T11:44:33.017Z,7.81
2023-01-18T11:47:41.787Z,7.73
2023-01-18T11:50:52.710Z,7.60
2023-01-18T11:54:04.304Z,7.52
2023-01-18T11:57:10.315Z,7.56
2023-01-18T12:00:14.767Z,7.61
2023-01-18T12:03:55.009Z,7.50
2023-01-18T12:07:14.480Z,7.45
2023-01-18T12:10:25.929Z,7.58
2023-01-18T12:13:34.162Z,7.60
2023-01-18T12:17:25.192Z,7.73
2023-01-18T12:20:40.430Z,8.00
2023-01-18T12:24:02.023Z,8.34
2023-01-18T12:27:31.685Z,8.41
2023-01-18T12:30:43.960Z,8.69
2023-01-18T12:34:02.708Z,8.69
2023-01-18T12:37:31.217Z,8.72
2023-01-18T12:40:40.874Z,8.61
2023-01-18T12:44:11.657Z,8.65
2023-01-18T12:47:35.444Z,8.48
2023-01-18T12:50:42.210Z,8.24
2023-01-18T12:53:56.521Z,8.36
2023-01-18T12:57:01.533Z,8.62
2023-01-18T13:00:09.160Z,8.85
2023-01-18T13:03:16.733Z,8.42
2023-01-18T13:06:21.109Z,8.58
2023-01-18T13:09:33.187Z,8.40
2023-01-18T13:12:35.899Z,8.17
2023-01-18T13:16:01.994Z,8.12
2023-01-18T13:19:13.181Z,8.28
2023-01-18T13:22:28.497Z,8.33
2023-01-18T13:25:51.029Z,8.26
2023-01-18T13:29:30.225Z,8.26
2023-01-18T13:32:38.023Z,8.39
2023-01-18T13:35:56.673Z,8.56
2023-01-18T13:39:06.900Z,8.43
2023-01-18T13:42:24.279Z,8.41
2023-01-18T13:45:29.925Z,8.38
2023-01-18T13:48:47.159Z,8.56
2023-01-18T13:51:53.985Z,8.31
2023-01-18T13:54:56.872Z,8.21
2023-01-18T13:57:59.509Z,8.24
2023-01-18T14:01:06.393Z,8.12
2023-01-18T14:04:29.396Z,8.20
2023-01-18T14:07:41.267Z,8.07
2023-01-18T14:10:49.568Z,8.21
2023-01-18T14:13:54.898Z,8.25
2023-01-18T14:17:05.079Z,8.31
2023-01-18T14:20:41.866Z,8.20
2023-01-18T14:24:07.125Z,8.22
2023-01-18T14:27:17.401Z,8.20
2023-01-18T14:30:35.616Z,7.89
2023-01-18T14:33:42.218Z,7.84
2023-01-18T14:36:46.700Z,7.65
2023-01-18T14:40:06.811Z,7.54
2023-01-18T14:43:27.485Z,7.48
2023-01-18T14:46:29.930Z,7.37
2023-01-18T14:49:37.432Z,7.27
2023-01-18T14:52:40.020Z,7.17
2023-01-18T14:55:42.901Z,7.16
2023-01-18T14:59:21.915Z,7.09
2023-01-18T15:02:27.600Z,7.03
2023-01-18T15:05:30.844Z,6.94
2023-01-18T15:08:36.935Z,6.92
2023-01-18T15:11:42.473Z,6.97
2023-01-18T15:14:48.403Z,6.85
2023-01-18T15:17:51.244Z,6.81
2023-01-18T15:21:06.220Z,6.79
2023-01-18T15:24:14.537Z,6.78
2023-01-18T15:27:18.814Z,6.68
2023-01-18T15:30:23.676Z,6.62
2023-01-18T15:33:27.446Z,6.58
2023-01-18T15:36:29.792Z,6.58
2023-01-18T15:39:33.105Z,6.54
2023-01-18T15:42:54.799Z,6.45
2023-01-18T15:45:58.716Z,6.43
2023-01-18T15:49:01.961Z,6.44
2023-01-18T15:52:04.748Z,6.47
2023-01-18T15:55:18.325Z,6.48
2023-01-18T15:58:36.414Z,6.62
2023-01-18T16:01:38.837Z,6.62
2023-01-18T16:04:41.595Z,6.59
2023-01-18T16:07:43.827Z,6.51
2023-01-18T16:10:48.767Z,6.52
2023-01-18T16:13:57.614Z,6.53
2023-01-18T16:17:23.403Z,6.44
2023-01-18T16:20:25.774Z,6.52
2023-01-18T16:23:29.523Z,6.51
2023-01-18T16:26:32.531Z,6.55
2023-01-18T16:30:02.555Z,6.65
2023-01-18T16:33:16.823Z,6.61
2023-01-18T16:36:20.289Z,6.56
2023-01-18T16:39:24.401Z,6.50
2023-01-18T16:42:37.503Z,6.57
2023-01-18T16:45:40.294Z,6.57
2023-01-18T16:48:43.187Z,6.50
2023-01-18T16:51:45.506Z,6.52
2023-01-18T16:54:48.256Z,6.52
2023-01-18T16:57:51.791Z,6.55
2023-01-18T17:01:00.391Z,6.45
2023-01-18T17:04:03.022Z,6.45
2023-01-18T17:07:06.748Z,6.46
2023-01-18T17:10:17.960Z,6.48
2023-01-18T17:13:21.840Z,6.47
2023-01-18T17:16:24.130Z,6.45
2023-01-18T17:19:27.734Z,6.44
2023-01-18T17:22:30.027Z,6.49
2023-01-18T17:25:32.582Z,6.58
2023-01-18T17:28:34.912Z,6.48
2023-01-18T17:31:48.081Z,6.42
2023-01-18T17:34:53.999Z,6.35
2023-01-18T17:38:04.710Z,6.34
2023-01-18T17:41:26.813Z,6.26
2023-01-18T17:44:36.492Z,6.11
2023-01-18T17:47:43.136Z,6.15
2023-01-18T17:50:46.471Z,6.10
2023-01-18T17:53:48.637Z,6.20
2023-01-18T17:56:51.254Z,6.12
2023-01-18T17:59:55.631Z,6.11
2023-01-18T18:03:00.401Z,6.16
2023-01-18T18:06:04.346Z,6.07
2023-01-18T18:09:06.628Z,5.88
2023-01-18T18:12:10.629Z,6.02
2023-01-18T18:15:13.435Z,6.08
2023-01-18T18:18:22.915Z,6.25
2023-01-18T18:21:27.211Z,6.32
2023-01-18T18:24:29.875Z,6.30
2023-01-18T18:27:44.647Z,6.33
2023-01-18T18:30:48.865Z,6.24
2023-01-18T18:33:51.343Z,6.39
2023-01-18T18:36:53.925Z,6.33
2023-01-18T18:39:56.044Z,6.21
2023-01-18T18:43:03.003Z,6.18
2023-01-18T18:46:05.872Z,6.35
2023-01-18T18:49:08.614Z,6.52
2023-01-18T18:52:10.901Z,6.68
2023-01-18T18:55:13.845Z,6.47
2023-01-18T18:58:16.395Z,6.50
2023-01-18T19:01:24.970Z,6.54
2023-01-18T19:04:27.245Z,6.48
2023-01-18T19:07:29.828Z,6.48
2023-01-18T19:10:32.356Z,6.38
2023-01-18T19:13:34.876Z,6.42
2023-01-18T19:16:37.366Z,6.27
2023-01-18T19:19:40.053Z,6.33
2023-01-18T19:22:42.354Z,6.28
2023-01-18T19:25:44.815Z,6.34
2023-01-18T19:28:47.494Z,6.34
2023-01-18T19:31:50.376Z,6.29
2023-01-18T19:34:52.627Z,6.50
2023-01-18T19:37:55.522Z,6.60
2023-01-18T19:41:01.691Z,6.42
2023-01-18T19:44:04.741Z,6.39
2023-01-18T19:47:07.277Z,6.33
2023-01-18T19:50:10.490Z,6.41
2023-01-18T19:53:13.028Z,6.27
2023-01-18T19:56:15.922Z,6.31
2023-01-18T19:59:18.582Z,6.26
2023-01-18T20:02:22.123Z,6.26
2023-01-18T20:05:24.858Z,6.26
2023-01-18T20:08:27.091Z,6.26
2023-01-18T20:11:29.703Z,6.20
2023-01-18T20:14:40.944Z,6.24
2023-01-18T20:17:44.196Z,6.22
2023-01-18T20:20:46.628Z,6.31
2023-01-18T20:23:49.951Z,6.34
2023-01-18T20:26:52.632Z,6.16
2023-01-18T20:29:55.254Z,6.02
2023-01-18T20:32:58.093Z,6.00
2023-01-18T20:36:03.122Z,6.07
2023-01-18T20:39:06.020Z,6.23
2023-01-18T20:42:09.009Z,6.42
2023-01-18T20:45:11.992Z,6.48
2023-01-18T20:48:14.911Z,6.29
2023-01-18T20:51:17.908Z,6.28
2023-01-18T20:54:20.604Z,6.18
2023-01-18T20:57:24.085Z,6.25
2023-01-18T21:00:26.928Z,6.31
2023-01-18T21:03:29.065Z,6.34
2023-01-18T21:06:32.264Z,6.18
2023-01-18T21:09:34.587Z,6.04
2023-01-18T21:12:37.660Z,6.04
2023-01-18T21:15:41.881Z,6.01
2023-01-18T21:18:44.940Z,5.90
2023-01-18T21:21:47.206Z,5.84
2023-01-18T21:24:49.665Z,5.89
2023-01-18T21:27:52.392Z,5.94
2023-01-18T21:30:56.396Z,5.97
2023-01-18T21:33:58.660Z,5.83
2023-01-18T21:37:01.196Z,5.66
2023-01-18T21:40:04.719Z,5.67
2023-01-18T21:43:26.621Z,5.64
2023-01-18T21:46:28.923Z,5.58
2023-01-18T21:53:33.914Z,5.68
2023-01-18T21:56:36.910Z,5.75
2023-01-18T21:59:39.216Z,5.74
2023-01-18T22:02:42.099Z,5.85
2023-01-18T22:05:45.035Z,5.93
2023-01-18T22:08:47.334Z,6.05
2023-01-18T22:11:50.174Z,6.07
2023-01-18T22:14:53.748Z,6.11
2023-01-18T22:17:56.744Z,6.01
2023-01-18T22:20:59.422Z,6.11
2023-01-18T22:24:02.079Z,6.12
2023-01-18T22:27:05.661Z,5.99
2023-01-18T22:30:09.153Z,6.03
2023-01-18T22:33:11.367Z,5.85
2023-01-18T22:36:15.050Z,5.95
2023-01-18T22:39:17.618Z,5.87
2023-01-18T22:42:20.675Z,5.82
2023-01-18T22:45:23.079Z,5.60
2023-01-18T22:48:44.475Z,5.63
2023-01-18T22:51:47.034Z,5.45
2023-01-18T22:54:49.996Z,5.51
2023-01-18T22:57:52.144Z,5.49
2023-01-18T23:00:54.774Z,5.56
2023-01-18T23:03:59.136Z,5.61
2023-01-18T23:07:01.864Z,5.57
2023-01-18T23:10:04.484Z,5.66
2023-01-18T23:13:06.998Z,5.68
2023-01-18T23:16:32.209Z,5.71
2023-01-18T23:19:34.877Z,5.55
2023-01-18T23:22:37.677Z,5.61
2023-01-18T23:25:40.172Z,5.70
2023-01-18T23:28:42.622Z,5.47
2023-01-18T23:31:46.663Z,5.43
2023-01-18T23:34:49.234Z,5.34
2023-01-18T23:37:51.707Z,5.44
2023-01-18T23:41:15.918Z,5.42
2023-01-18T23:44:37.375Z,5.38
2023-01-18T23:47:58.875Z,5.32
2023-01-18T23:51:20.901Z,5.37
2023-01-18T23:54:23.403Z,5.37
2023-01-18T23:57:26.319Z,5.16
